首页
METAR-TAF:

METAR-TAF

机场 :

雅库茨克, 俄罗斯

纬度: 62-01N, 经度: 129-43E, 海拔: 103米

当前天气观测

该预报发布于23分钟前的03:00 UTC
风速4节,风向西南
温度 -41°C
湿度 65%
气压 1033 hPa
能见度10公里或以上
1500米以下无云,无积雨云

METAR: UEEE 200300Z 22002MPS CAVOK M41/M45 Q1033 R23L/490150 NOSIG RMK QFE766

时间: 12:23 (03:23 UTC)

预报

该预报发布于1小时和23分钟前的02:00 UTC
预报有效从20日的 03点(UTC)到 21日的 09点(UTC)
风速6节,风向西转西南
能見度: 2100
轻雾
短暂存在
从 20日的 03点(UTC)到 20日的 18点(UTC)
能見度: 0300
层高于300英尺

TAF: UEEE 200200Z 2003/2109 25003MPS 2100 BR NSC TXM40/2006Z TNM44/2023Z TEMPO 2003/2018 0300 FG VV003

超过4000个机场的气象观测和天气预报(METAR&TAF报告)。

可查询的气象台以黄色和红色小点在地图上表示。

将鼠标移到小点上方,可查看气象台名称。

然后点击查看天气观测和预报。

如需切换地图:点击带黑十字的绿色按钮放大地图;点击带横线的绿色按钮缩小地图;或者点击绿色箭头查看邻近地区的地图。


METAR-TAF: